< < Back
Terminal Aerodrome Forecast


Current Version              Previous Versions:   1  2  3  4  5  6  7  8  9  

Terminal Aerodrome Forecast

163
FTUS42 KJAX 020520
TAFJAX
TAF
KJAX 020520Z 0206/0306 23006KT P6SM FEW150 SCT250
     FM021700 23007KT P6SM VCTS SCT040CB SCT250
     FM022000 15009KT P6SM VCTS SCT040CB BKN250
     FM030100 VRB04KT P6SM SCT100 BKN250=

Latest METAR

634
SAUS80 KWBC 020500 CCA
MTRJAX
METAR KJAX 020456Z 20006KT 10SM FEW150 FEW250 26/24 A3004 RMK AO2 SLP174
T02560239 403280228


USA.gov is the U.S. government's official web portal to all federal, state and local government web resources and services.